sensor_id;sensor_type;location;lat;lon;timestamp;P1;durP1;ratioP1;P2;durP2;ratioP2
52274;SDS011;38228;50.940;4.024;2022-07-06T00:00:07;5.63;;;2.65;;
52274;SDS011;38228;50.940;4.024;2022-07-06T00:02:47;8.00;;;3.03;;
52274;SDS011;38228;50.940;4.024;2022-07-06T00:05:12;5.60;;;2.53;;
52274;SDS011;38228;50.940;4.024;2022-07-06T00:07:38;5.13;;;2.90;;
52274;SDS011;38228;50.940;4.024;2022-07-06T00:10:12;9.95;;;3.30;;
52274;SDS011;38228;50.940;4.024;2022-07-06T00:12:40;7.85;;;3.00;;
52274;SDS011;38228;50.940;4.024;2022-07-06T00:15:06;6.82;;;2.80;;
52274;SDS011;38228;50.940;4.024;2022-07-06T00:17:34;6.28;;;3.20;;
52274;SDS011;38228;50.940;4.024;2022-07-06T00:20:00;7.60;;;3.35;;
52274;SDS011;38228;50.940;4.024;2022-07-06T00:22:26;7.90;;;3.30;;
52274;SDS011;38228;50.940;4.024;2022-07-06T00:24:52;4.55;;;2.60;;
52274;SDS011;38228;50.940;4.024;2022-07-06T00:27:17;8.32;;;3.10;;
52274;SDS011;38228;50.940;4.024;2022-07-06T00:29:43;5.80;;;2.80;;
52274;SDS011;38228;50.940;4.024;2022-07-06T00:32:12;8.27;;;3.40;;
52274;SDS011;38228;50.940;4.024;2022-07-06T00:34:42;6.25;;;3.05;;
52274;SDS011;38228;50.940;4.024;2022-07-06T00:37:08;8.68;;;3.40;;
52274;SDS011;38228;50.940;4.024;2022-07-06T00:39:34;10.60;;;3.85;;
52274;SDS011;38228;50.940;4.024;2022-07-06T00:42:00;5.38;;;2.83;;
52274;SDS011;38228;50.940;4.024;2022-07-06T00:44:26;4.50;;;3.03;;
52274;SDS011;38228;50.940;4.024;2022-07-06T00:46:52;10.77;;;3.28;;
52274;SDS011;38228;50.940;4.024;2022-07-06T00:49:17;9.18;;;3.03;;
52274;SDS011;38228;50.940;4.024;2022-07-06T00:52:02;7.95;;;3.40;;
52274;SDS011;38228;50.940;4.024;2022-07-06T00:54:31;9.82;;;3.47;;
52274;SDS011;38228;50.940;4.024;2022-07-06T00:57:01;5.00;;;3.13;;
52274;SDS011;38228;50.940;4.024;2022-07-06T00:59:29;7.55;;;3.20;;
52274;SDS011;38228;50.940;4.024;2022-07-06T01:02:03;5.32;;;3.15;;
52274;SDS011;38228;50.940;4.024;2022-07-06T01:04:29;6.30;;;3.28;;
52274;SDS011;38228;50.940;4.024;2022-07-06T01:07:00;12.63;;;3.47;;
52274;SDS011;38228;50.940;4.024;2022-07-06T01:09:26;7.70;;;3.40;;
52274;SDS011;38228;50.940;4.024;2022-07-06T01:11:52;9.38;;;3.65;;
52274;SDS011;38228;50.940;4.024;2022-07-06T01:14:24;9.52;;;3.90;;
52274;SDS011;38228;50.940;4.024;2022-07-06T01:16:50;5.28;;;3.35;;
52274;SDS011;38228;50.940;4.024;2022-07-06T01:19:19;5.20;;;3.53;;
52274;SDS011;38228;50.940;4.024;2022-07-06T01:21:45;6.03;;;3.03;;
52274;SDS011;38228;50.940;4.024;2022-07-06T01:24:10;7.25;;;3.22;;
52274;SDS011;38228;50.940;4.024;2022-07-06T01:26:36;7.13;;;3.67;;
52274;SDS011;38228;50.940;4.024;2022-07-06T01:29:07;7.03;;;3.30;;
52274;SDS011;38228;50.940;4.024;2022-07-06T01:31:33;8.05;;;3.35;;
52274;SDS011;38228;50.940;4.024;2022-07-06T01:34:06;8.55;;;3.90;;
52274;SDS011;38228;50.940;4.024;2022-07-06T01:36:41;7.00;;;4.25;;
52274;SDS011;38228;50.940;4.024;2022-07-06T01:39:07;9.00;;;5.25;;
52274;SDS011;38228;50.940;4.024;2022-07-06T01:41:37;8.57;;;5.10;;
52274;SDS011;38228;50.940;4.024;2022-07-06T01:44:05;8.95;;;4.95;;
52274;SDS011;38228;50.940;4.024;2022-07-06T01:46:33;7.65;;;4.65;;
52274;SDS011;38228;50.940;4.024;2022-07-06T01:48:59;9.82;;;4.15;;
52274;SDS011;38228;50.940;4.024;2022-07-06T01:51:33;9.43;;;4.75;;
52274;SDS011;38228;50.940;4.024;2022-07-06T01:54:01;11.15;;;4.60;;
52274;SDS011;38228;50.940;4.024;2022-07-06T01:56:27;9.10;;;4.60;;
52274;SDS011;38228;50.940;4.024;2022-07-06T01:58:54;8.75;;;4.20;;
52274;SDS011;38228;50.940;4.024;2022-07-06T02:01:22;8.07;;;4.30;;
52274;SDS011;38228;50.940;4.024;2022-07-06T02:03:50;8.65;;;4.53;;
52274;SDS011;38228;50.940;4.024;2022-07-06T02:06:18;10.15;;;4.32;;
52274;SDS011;38228;50.940;4.024;2022-07-06T02:08:44;8.35;;;4.07;;
52274;SDS011;38228;50.940;4.024;2022-07-06T02:11:10;6.25;;;3.97;;
52274;SDS011;38228;50.940;4.024;2022-07-06T02:13:36;7.32;;;3.80;;
52274;SDS011;38228;50.940;4.024;2022-07-06T02:16:02;5.57;;;3.47;;
52274;SDS011;38228;50.940;4.024;2022-07-06T02:18:38;7.82;;;4.00;;
52274;SDS011;38228;50.940;4.024;2022-07-06T02:21:06;10.15;;;3.40;;
52274;SDS011;38228;50.940;4.024;2022-07-06T02:23:32;5.20;;;3.60;;
52274;SDS011;38228;50.940;4.024;2022-07-06T02:25:57;13.32;;;3.92;;
52274;SDS011;38228;50.940;4.024;2022-07-06T02:28:24;7.25;;;3.67;;
52274;SDS011;38228;50.940;4.024;2022-07-06T02:30:50;7.10;;;3.70;;
52274;SDS011;38228;50.940;4.024;2022-07-06T02:33:19;8.48;;;3.60;;
52274;SDS011;38228;50.940;4.024;2022-07-06T02:35:47;12.50;;;4.43;;
52274;SDS011;38228;50.940;4.024;2022-07-06T02:38:14;9.48;;;4.10;;
52274;SDS011;38228;50.940;4.024;2022-07-06T02:40:39;7.78;;;4.47;;
52274;SDS011;38228;50.940;4.024;2022-07-06T02:43:05;7.45;;;4.25;;
52274;SDS011;38228;50.940;4.024;2022-07-06T02:45:31;7.15;;;4.63;;
52274;SDS011;38228;50.940;4.024;2022-07-06T02:47:57;7.40;;;4.38;;
52274;SDS011;38228;50.940;4.024;2022-07-06T02:50:26;8.05;;;5.03;;
52274;SDS011;38228;50.940;4.024;2022-07-06T02:53:13;7.22;;;4.90;;
52274;SDS011;38228;50.940;4.024;2022-07-06T02:55:38;9.18;;;4.35;;
52274;SDS011;38228;50.940;4.024;2022-07-06T02:58:07;9.10;;;4.85;;
52274;SDS011;38228;50.940;4.024;2022-07-06T03:00:43;7.15;;;4.63;;
52274;SDS011;38228;50.940;4.024;2022-07-06T03:03:09;4.88;;;3.97;;
52274;SDS011;38228;50.940;4.024;2022-07-06T03:05:37;11.35;;;4.50;;
52274;SDS011;38228;50.940;4.024;2022-07-06T03:08:03;12.05;;;4.30;;
52274;SDS011;38228;50.940;4.024;2022-07-06T03:10:34;8.15;;;4.70;;
52274;SDS011;38228;50.940;4.024;2022-07-06T03:13:00;7.22;;;4.15;;
52274;SDS011;38228;50.940;4.024;2022-07-06T03:15:37;10.10;;;4.38;;
52274;SDS011;38228;50.940;4.024;2022-07-06T03:18:06;6.25;;;4.40;;
52274;SDS011;38228;50.940;4.024;2022-07-06T03:20:31;7.97;;;3.97;;
52274;SDS011;38228;50.940;4.024;2022-07-06T03:22:57;8.43;;;4.25;;
52274;SDS011;38228;50.940;4.024;2022-07-06T03:25:23;10.23;;;4.90;;
52274;SDS011;38228;50.940;4.024;2022-07-06T03:27:48;6.60;;;4.80;;
52274;SDS011;38228;50.940;4.024;2022-07-06T03:30:21;10.95;;;4.97;;
52274;SDS011;38228;50.940;4.024;2022-07-06T03:32:54;8.13;;;4.55;;
52274;SDS011;38228;50.940;4.024;2022-07-06T03:35:25;8.82;;;4.55;;
52274;SDS011;38228;50.940;4.024;2022-07-06T03:37:54;6.50;;;4.18;;
52274;SDS011;38228;50.940;4.024;2022-07-06T03:40:24;9.48;;;4.72;;
52274;SDS011;38228;50.940;4.024;2022-07-06T03:42:53;7.65;;;4.63;;
52274;SDS011;38228;50.940;4.024;2022-07-06T03:45:23;8.77;;;4.93;;
52274;SDS011;38228;50.940;4.024;2022-07-06T03:47:49;10.30;;;5.38;;
52274;SDS011;38228;50.940;4.024;2022-07-06T03:50:15;7.47;;;4.72;;
52274;SDS011;38228;50.940;4.024;2022-07-06T03:52:45;9.20;;;5.03;;
52274;SDS011;38228;50.940;4.024;2022-07-06T03:55:13;9.02;;;4.85;;
52274;SDS011;38228;50.940;4.024;2022-07-06T03:57:39;8.75;;;4.47;;
52274;SDS011;38228;50.940;4.024;2022-07-06T04:00:06;10.40;;;4.50;;
52274;SDS011;38228;50.940;4.024;2022-07-06T04:02:33;7.57;;;4.95;;
52274;SDS011;38228;50.940;4.024;2022-07-06T04:04:59;8.90;;;4.95;;
52274;SDS011;38228;50.940;4.024;2022-07-06T04:07:25;7.72;;;4.45;;
52274;SDS011;38228;50.940;4.024;2022-07-06T04:09:51;12.23;;;4.70;;
52274;SDS011;38228;50.940;4.024;2022-07-06T04:12:17;10.32;;;4.75;;
52274;SDS011;38228;50.940;4.024;2022-07-06T04:14:45;11.07;;;5.10;;
52274;SDS011;38228;50.940;4.024;2022-07-06T04:17:28;8.27;;;4.65;;
52274;SDS011;38228;50.940;4.024;2022-07-06T04:20:15;14.57;;;4.82;;
52274;SDS011;38228;50.940;4.024;2022-07-06T04:22:40;9.80;;;4.93;;
52274;SDS011;38228;50.940;4.024;2022-07-06T04:25:09;10.90;;;5.53;;
52274;SDS011;38228;50.940;4.024;2022-07-06T04:27:37;11.52;;;5.30;;
52274;SDS011;38228;50.940;4.024;2022-07-06T04:30:06;11.50;;;6.07;;
52274;SDS011;38228;50.940;4.024;2022-07-06T04:32:34;10.13;;;5.43;;
52274;SDS011;38228;50.940;4.024;2022-07-06T04:35:03;9.98;;;4.97;;
52274;SDS011;38228;50.940;4.024;2022-07-06T04:37:30;10.50;;;5.43;;
52274;SDS011;38228;50.940;4.024;2022-07-06T04:39:58;7.70;;;5.65;;
52274;SDS011;38228;50.940;4.024;2022-07-06T04:42:24;8.40;;;5.53;;
52274;SDS011;38228;50.940;4.024;2022-07-06T04:44:56;9.32;;;5.85;;
52274;SDS011;38228;50.940;4.024;2022-07-06T04:47:22;7.38;;;5.35;;
52274;SDS011;38228;50.940;4.024;2022-07-06T04:49:49;10.82;;;6.15;;
52274;SDS011;38228;50.940;4.024;2022-07-06T04:52:14;14.18;;;6.00;;
52274;SDS011;38228;50.940;4.024;2022-07-06T04:54:41;12.57;;;6.50;;
52274;SDS011;38228;50.940;4.024;2022-07-06T04:57:07;9.43;;;5.57;;
52274;SDS011;38228;50.940;4.024;2022-07-06T04:59:32;10.55;;;6.07;;
52274;SDS011;38228;50.940;4.024;2022-07-06T05:01:58;10.57;;;6.30;;
52274;SDS011;38228;50.940;4.024;2022-07-06T05:04:25;15.10;;;6.32;;
52274;SDS011;38228;50.940;4.024;2022-07-06T05:06:53;11.35;;;6.20;;
52274;SDS011;38228;50.940;4.024;2022-07-06T05:09:19;13.13;;;6.22;;
52274;SDS011;38228;50.940;4.024;2022-07-06T05:11:48;10.48;;;6.25;;
52274;SDS011;38228;50.940;4.024;2022-07-06T05:14:13;10.30;;;5.53;;
52274;SDS011;38228;50.940;4.024;2022-07-06T05:16:49;15.02;;;6.32;;
52274;SDS011;38228;50.940;4.024;2022-07-06T05:19:18;16.63;;;6.40;;
52274;SDS011;38228;50.940;4.024;2022-07-06T05:21:46;10.20;;;5.60;;
52274;SDS011;38228;50.940;4.024;2022-07-06T05:24:17;13.57;;;5.60;;
52274;SDS011;38228;50.940;4.024;2022-07-06T05:26:44;13.43;;;6.07;;
52274;SDS011;38228;50.940;4.024;2022-07-06T05:29:12;9.05;;;5.53;;
52274;SDS011;38228;50.940;4.024;2022-07-06T05:31:38;10.15;;;5.65;;
52274;SDS011;38228;50.940;4.024;2022-07-06T05:34:04;9.63;;;5.45;;
52274;SDS011;38228;50.940;4.024;2022-07-06T05:36:33;11.90;;;5.78;;
52274;SDS011;38228;50.940;4.024;2022-07-06T05:39:03;7.53;;;5.13;;
52274;SDS011;38228;50.940;4.024;2022-07-06T05:41:29;9.77;;;5.78;;
52274;SDS011;38228;50.940;4.024;2022-07-06T05:43:55;9.20;;;5.65;;
52274;SDS011;38228;50.940;4.024;2022-07-06T05:46:31;13.80;;;6.32;;
52274;SDS011;38228;50.940;4.024;2022-07-06T05:48:59;11.73;;;5.68;;
52274;SDS011;38228;50.940;4.024;2022-07-06T05:54:10;12.85;;;5.72;;
52274;SDS011;38228;50.940;4.024;2022-07-06T05:56:37;10.45;;;5.57;;
52274;SDS011;38228;50.940;4.024;2022-07-06T05:59:08;31.00;;;5.88;;
52274;SDS011;38228;50.940;4.024;2022-07-06T06:01:46;12.57;;;5.43;;
52274;SDS011;38228;50.940;4.024;2022-07-06T06:04:14;12.20;;;5.85;;
52274;SDS011;38228;50.940;4.024;2022-07-06T06:06:40;10.20;;;5.82;;
52274;SDS011;38228;50.940;4.024;2022-07-06T06:09:28;11.40;;;5.47;;
52274;SDS011;38228;50.940;4.024;2022-07-06T06:11:54;10.95;;;5.28;;
52274;SDS011;38228;50.940;4.024;2022-07-06T06:14:22;6.95;;;5.38;;
52274;SDS011;38228;50.940;4.024;2022-07-06T06:16:48;6.65;;;5.10;;
52274;SDS011;38228;50.940;4.024;2022-07-06T06:19:19;11.23;;;6.00;;
52274;SDS011;38228;50.940;4.024;2022-07-06T06:21:48;10.20;;;5.03;;
52274;SDS011;38228;50.940;4.024;2022-07-06T06:24:16;9.10;;;5.68;;
52274;SDS011;38228;50.940;4.024;2022-07-06T06:26:44;9.40;;;5.85;;
52274;SDS011;38228;50.940;4.024;2022-07-06T06:29:10;11.93;;;5.60;;
52274;SDS011;38228;50.940;4.024;2022-07-06T06:31:56;12.35;;;5.80;;
52274;SDS011;38228;50.940;4.024;2022-07-06T06:34:24;8.63;;;5.25;;
52274;SDS011;38228;50.940;4.024;2022-07-06T06:36:53;12.50;;;5.90;;
52274;SDS011;38228;50.940;4.024;2022-07-06T06:39:19;9.50;;;5.20;;
52274;SDS011;38228;50.940;4.024;2022-07-06T06:41:44;9.77;;;4.90;;
52274;SDS011;38228;50.940;4.024;2022-07-06T06:44:10;9.80;;;5.22;;
52274;SDS011;38228;50.940;4.024;2022-07-06T06:46:36;9.68;;;5.32;;
52274;SDS011;38228;50.940;4.024;2022-07-06T06:49:03;13.15;;;5.85;;
52274;SDS011;38228;50.940;4.024;2022-07-06T06:51:32;9.55;;;5.25;;
52274;SDS011;38228;50.940;4.024;2022-07-06T06:54:06;9.00;;;5.35;;
52274;SDS011;38228;50.940;4.024;2022-07-06T06:56:32;10.80;;;5.68;;
52274;SDS011;38228;50.940;4.024;2022-07-06T06:58:58;8.85;;;5.25;;
52274;SDS011;38228;50.940;4.024;2022-07-06T07:01:26;9.15;;;5.43;;
52274;SDS011;38228;50.940;4.024;2022-07-06T07:03:52;9.52;;;5.72;;
52274;SDS011;38228;50.940;4.024;2022-07-06T07:06:20;12.93;;;5.35;;
52274;SDS011;38228;50.940;4.024;2022-07-06T07:08:49;10.00;;;5.65;;
52274;SDS011;38228;50.940;4.024;2022-07-06T07:11:14;10.52;;;5.07;;
52274;SDS011;38228;50.940;4.024;2022-07-06T07:13:42;8.63;;;5.10;;
52274;SDS011;38228;50.940;4.024;2022-07-06T07:16:09;10.82;;;5.00;;
52274;SDS011;38228;50.940;4.024;2022-07-06T07:18:37;10.60;;;4.93;;
52274;SDS011;38228;50.940;4.024;2022-07-06T07:21:02;8.80;;;4.75;;
52274;SDS011;38228;50.940;4.024;2022-07-06T07:23:30;9.48;;;5.10;;
52274;SDS011;38228;50.940;4.024;2022-07-06T07:25:56;7.18;;;4.30;;
52274;SDS011;38228;50.940;4.024;2022-07-06T07:28:22;12.52;;;5.32;;
52274;SDS011;38228;50.940;4.024;2022-07-06T07:30:47;9.20;;;4.53;;
52274;SDS011;38228;50.940;4.024;2022-07-06T07:33:16;11.63;;;4.13;;
52274;SDS011;38228;50.940;4.024;2022-07-06T07:35:42;11.60;;;3.80;;
52274;SDS011;38228;50.940;4.024;2022-07-06T07:38:10;6.28;;;3.00;;
52274;SDS011;38228;50.940;4.024;2022-07-06T07:40:41;6.07;;;3.40;;
52274;SDS011;38228;50.940;4.024;2022-07-06T07:43:07;7.68;;;2.97;;
52274;SDS011;38228;50.940;4.024;2022-07-06T07:45:33;7.32;;;2.85;;
52274;SDS011;38228;50.940;4.024;2022-07-06T07:51:23;4.32;;;1.63;;
52274;SDS011;38228;50.940;4.024;2022-07-06T07:53:52;5.93;;;2.50;;
52274;SDS011;38228;50.940;4.024;2022-07-06T07:56:17;7.07;;;2.85;;
52274;SDS011;38228;50.940;4.024;2022-07-06T07:58:43;11.30;;;4.35;;
52274;SDS011;38228;50.940;4.024;2022-07-06T08:01:10;8.25;;;3.55;;
52274;SDS011;38228;50.940;4.024;2022-07-06T08:03:35;6.50;;;3.38;;
52274;SDS011;38228;50.940;4.024;2022-07-06T08:06:01;9.50;;;3.22;;
52274;SDS011;38228;50.940;4.024;2022-07-06T08:08:29;5.97;;;3.05;;
52274;SDS011;38228;50.940;4.024;2022-07-06T08:10:57;10.07;;;3.53;;
52274;SDS011;38228;50.940;4.024;2022-07-06T08:13:23;8.23;;;3.47;;
52274;SDS011;38228;50.940;4.024;2022-07-06T08:15:51;8.50;;;3.42;;
52274;SDS011;38228;50.940;4.024;2022-07-06T08:18:19;8.18;;;3.40;;
52274;SDS011;38228;50.940;4.024;2022-07-06T08:20:45;7.95;;;4.30;;
52274;SDS011;38228;50.940;4.024;2022-07-06T08:23:11;6.85;;;3.92;;
52274;SDS011;38228;50.940;4.024;2022-07-06T08:25:40;8.75;;;4.00;;
52274;SDS011;38228;50.940;4.024;2022-07-06T08:28:06;6.70;;;3.65;;
52274;SDS011;38228;50.940;4.024;2022-07-06T08:30:31;8.52;;;3.65;;
52274;SDS011;38228;50.940;4.024;2022-07-06T08:33:01;6.53;;;3.40;;
52274;SDS011;38228;50.940;4.024;2022-07-06T08:35:35;9.57;;;3.70;;
52274;SDS011;38228;50.940;4.024;2022-07-06T08:38:03;9.15;;;4.30;;
52274;SDS011;38228;50.940;4.024;2022-07-06T08:40:33;8.13;;;4.13;;
52274;SDS011;38228;50.940;4.024;2022-07-06T08:43:02;7.63;;;3.47;;
52274;SDS011;38228;50.940;4.024;2022-07-06T08:45:29;12.10;;;3.70;;
52274;SDS011;38228;50.940;4.024;2022-07-06T08:47:58;6.47;;;3.00;;
52274;SDS011;38228;50.940;4.024;2022-07-06T08:50:30;9.27;;;3.60;;
52274;SDS011;38228;50.940;4.024;2022-07-06T08:52:59;5.78;;;2.75;;
52274;SDS011;38228;50.940;4.024;2022-07-06T08:55:35;7.32;;;3.30;;
52274;SDS011;38228;50.940;4.024;2022-07-06T08:58:08;7.82;;;2.97;;
52274;SDS011;38228;50.940;4.024;2022-07-06T09:00:34;8.63;;;3.10;;
52274;SDS011;38228;50.940;4.024;2022-07-06T09:03:01;8.27;;;3.08;;
52274;SDS011;38228;50.940;4.024;2022-07-06T09:05:27;10.15;;;3.20;;
52274;SDS011;38228;50.940;4.024;2022-07-06T09:07:57;9.15;;;3.22;;
52274;SDS011;38228;50.940;4.024;2022-07-06T09:10:27;12.25;;;3.33;;
52274;SDS011;38228;50.940;4.024;2022-07-06T09:13:01;5.60;;;2.92;;
52274;SDS011;38228;50.940;4.024;2022-07-06T09:15:31;11.20;;;3.20;;
52274;SDS011;38228;50.940;4.024;2022-07-06T09:17:57;9.77;;;3.00;;
52274;SDS011;38228;50.940;4.024;2022-07-06T09:20:23;10.82;;;2.72;;
52274;SDS011;38228;50.940;4.024;2022-07-06T09:22:59;7.82;;;3.10;;
52274;SDS011;38228;50.940;4.024;2022-07-06T09:25:33;5.07;;;2.73;;
52274;SDS011;38228;50.940;4.024;2022-07-06T09:28:02;10.43;;;3.25;;
52274;SDS011;38228;50.940;4.024;2022-07-06T09:30:37;7.07;;;2.20;;
52274;SDS011;38228;50.940;4.024;2022-07-06T09:33:07;5.80;;;2.63;;
52274;SDS011;38228;50.940;4.024;2022-07-06T09:35:37;9.57;;;2.90;;
52274;SDS011;38228;50.940;4.024;2022-07-06T09:38:04;7.72;;;2.63;;
52274;SDS011;38228;50.940;4.024;2022-07-06T09:40:43;5.93;;;2.70;;
52274;SDS011;38228;50.940;4.024;2022-07-06T09:43:19;5.03;;;2.00;;
52274;SDS011;38228;50.940;4.024;2022-07-06T09:45:50;6.65;;;2.38;;
52274;SDS011;38228;50.940;4.024;2022-07-06T09:48:28;6.15;;;2.40;;
52274;SDS011;38228;50.940;4.024;2022-07-06T09:50:55;9.13;;;2.67;;
52274;SDS011;38228;50.940;4.024;2022-07-06T09:53:28;6.78;;;2.58;;
52274;SDS011;38228;50.940;4.024;2022-07-06T09:55:58;5.50;;;2.60;;
52274;SDS011;38228;50.940;4.024;2022-07-06T09:58:30;6.18;;;2.60;;
52274;SDS011;38228;50.940;4.024;2022-07-06T10:01:03;8.83;;;3.50;;
52274;SDS011;38228;50.940;4.024;2022-07-06T10:03:33;7.03;;;2.75;;
52274;SDS011;38228;50.940;4.024;2022-07-06T10:05:59;8.52;;;2.75;;
52274;SDS011;38228;50.940;4.024;2022-07-06T10:08:25;7.10;;;2.70;;
52274;SDS011;38228;50.940;4.024;2022-07-06T10:10:56;6.03;;;2.58;;
52274;SDS011;38228;50.940;4.024;2022-07-06T10:13:25;6.97;;;2.47;;
52274;SDS011;38228;50.940;4.024;2022-07-06T10:15:55;6.68;;;2.67;;
52274;SDS011;38228;50.940;4.024;2022-07-06T10:18:28;6.60;;;2.22;;
52274;SDS011;38228;50.940;4.024;2022-07-06T10:20:56;6.60;;;2.03;;
52274;SDS011;38228;50.940;4.024;2022-07-06T10:23:28;4.82;;;2.13;;
52274;SDS011;38228;50.940;4.024;2022-07-06T10:25:55;5.60;;;2.35;;
52274;SDS011;38228;50.940;4.024;2022-07-06T10:28:23;6.95;;;1.95;;
52274;SDS011;38228;50.940;4.024;2022-07-06T10:34:24;8.00;;;2.30;;
52274;SDS011;38228;50.940;4.024;2022-07-06T10:36:51;8.70;;;1.88;;
52274;SDS011;38228;50.940;4.024;2022-07-06T10:39:35;5.10;;;2.28;;
52274;SDS011;38228;50.940;4.024;2022-07-06T10:45:19;7.20;;;2.70;;
52274;SDS011;38228;50.940;4.024;2022-07-06T10:50:37;8.82;;;2.03;;
52274;SDS011;38228;50.940;4.024;2022-07-06T10:53:09;5.10;;;1.60;;
52274;SDS011;38228;50.940;4.024;2022-07-06T10:55:37;4.83;;;2.10;;
52274;SDS011;38228;50.940;4.024;2022-07-06T10:58:05;5.07;;;1.95;;
52274;SDS011;38228;50.940;4.024;2022-07-06T11:05:59;6.28;;;1.80;;
52274;SDS011;38228;50.940;4.024;2022-07-06T11:13:59;6.03;;;2.13;;
52274;SDS011;38228;50.940;4.024;2022-07-06T11:16:29;4.68;;;2.10;;
52274;SDS011;38228;50.940;4.024;2022-07-06T11:19:11;4.45;;;2.25;;
52274;SDS011;38228;50.940;4.024;2022-07-06T11:24:15;6.05;;;2.10;;
52274;SDS011;38228;50.940;4.024;2022-07-06T11:26:43;5.18;;;2.38;;
52274;SDS011;38228;50.940;4.024;2022-07-06T11:29:11;5.65;;;2.60;;
52274;SDS011;38228;50.940;4.024;2022-07-06T11:31:40;3.60;;;2.00;;
52274;SDS011;38228;50.940;4.024;2022-07-06T11:34:07;6.45;;;1.75;;
52274;SDS011;38228;50.940;4.024;2022-07-06T11:36:35;8.40;;;2.30;;
52274;SDS011;38228;50.940;4.024;2022-07-06T11:39:01;5.32;;;1.77;;
52274;SDS011;38228;50.940;4.024;2022-07-06T11:41:28;5.43;;;2.35;;
52274;SDS011;38228;50.940;4.024;2022-07-06T11:43:53;4.38;;;1.98;;
52274;SDS011;38228;50.940;4.024;2022-07-06T11:48:59;5.13;;;1.40;;
52274;SDS011;38228;50.940;4.024;2022-07-06T11:51:28;5.65;;;1.50;;
52274;SDS011;38228;50.940;4.024;2022-07-06T11:53:57;6.85;;;2.17;;
52274;SDS011;38228;50.940;4.024;2022-07-06T11:56:27;7.30;;;2.25;;
52274;SDS011;38228;50.940;4.024;2022-07-06T11:58:55;6.90;;;2.05;;
52274;SDS011;38228;50.940;4.024;2022-07-06T12:01:23;3.67;;;1.80;;
52274;SDS011;38228;50.940;4.024;2022-07-06T12:03:51;4.93;;;2.20;;
52274;SDS011;38228;50.940;4.024;2022-07-06T12:06:22;7.05;;;2.10;;
52274;SDS011;38228;50.940;4.024;2022-07-06T12:11:29;8.55;;;2.33;;
52274;SDS011;38228;50.940;4.024;2022-07-06T12:13:58;6.70;;;2.30;;
52274;SDS011;38228;50.940;4.024;2022-07-06T12:16:35;6.85;;;2.20;;
52274;SDS011;38228;50.940;4.024;2022-07-06T12:19:02;8.18;;;2.50;;
52274;SDS011;38228;50.940;4.024;2022-07-06T12:21:29;4.75;;;2.50;;
52274;SDS011;38228;50.940;4.024;2022-07-06T12:23:56;4.43;;;1.60;;
52274;SDS011;38228;50.940;4.024;2022-07-06T12:26:23;5.88;;;1.98;;
52274;SDS011;38228;50.940;4.024;2022-07-06T12:29:03;5.80;;;2.75;;
52274;SDS011;38228;50.940;4.024;2022-07-06T12:31:38;4.55;;;1.73;;
52274;SDS011;38228;50.940;4.024;2022-07-06T12:34:05;6.32;;;1.90;;
52274;SDS011;38228;50.940;4.024;2022-07-06T12:39:40;6.93;;;2.03;;
52274;SDS011;38228;50.940;4.024;2022-07-06T12:44:45;5.57;;;1.85;;
52274;SDS011;38228;50.940;4.024;2022-07-06T12:47:19;4.50;;;2.22;;
52274;SDS011;38228;50.940;4.024;2022-07-06T12:49:48;6.38;;;2.10;;
52274;SDS011;38228;50.940;4.024;2022-07-06T12:52:15;4.85;;;2.20;;
52274;SDS011;38228;50.940;4.024;2022-07-06T12:54:45;6.35;;;1.70;;
52274;SDS011;38228;50.940;4.024;2022-07-06T12:57:18;4.50;;;1.65;;
52274;SDS011;38228;50.940;4.024;2022-07-06T12:59:54;5.95;;;1.67;;
52274;SDS011;38228;50.940;4.024;2022-07-06T13:04:58;5.80;;;1.63;;
52274;SDS011;38228;50.940;4.024;2022-07-06T13:07:29;4.68;;;1.55;;
52274;SDS011;38228;50.940;4.024;2022-07-06T13:10:06;7.95;;;1.80;;
52274;SDS011;38228;50.940;4.024;2022-07-06T13:12:34;6.00;;;1.80;;
52274;SDS011;38228;50.940;4.024;2022-07-06T13:15:00;4.00;;;1.40;;
52274;SDS011;38228;50.940;4.024;2022-07-06T13:17:26;2.25;;;1.25;;
52274;SDS011;38228;50.940;4.024;2022-07-06T13:19:52;3.10;;;1.52;;
52274;SDS011;38228;50.940;4.024;2022-07-06T13:22:18;8.60;;;1.98;;
52274;SDS011;38228;50.940;4.024;2022-07-06T13:24:43;7.53;;;1.50;;
52274;SDS011;38228;50.940;4.024;2022-07-06T13:27:10;5.65;;;1.50;;
52274;SDS011;38228;50.940;4.024;2022-07-06T13:29:36;4.32;;;1.50;;
52274;SDS011;38228;50.940;4.024;2022-07-06T13:32:03;5.50;;;1.50;;
52274;SDS011;38228;50.940;4.024;2022-07-06T13:34:29;4.22;;;1.23;;
52274;SDS011;38228;50.940;4.024;2022-07-06T13:36:55;6.85;;;1.60;;
52274;SDS011;38228;50.940;4.024;2022-07-06T13:39:21;5.88;;;1.50;;
52274;SDS011;38228;50.940;4.024;2022-07-06T13:41:47;2.70;;;1.17;;
52274;SDS011;38228;50.940;4.024;2022-07-06T13:44:12;4.00;;;1.33;;
52274;SDS011;38228;50.940;4.024;2022-07-06T13:46:38;4.13;;;1.33;;
52274;SDS011;38228;50.940;4.024;2022-07-06T13:49:04;10.55;;;1.67;;
52274;SDS011;38228;50.940;4.024;2022-07-06T13:51:30;5.53;;;1.52;;
52274;SDS011;38228;50.940;4.024;2022-07-06T13:54:00;7.78;;;1.65;;
52274;SDS011;38228;50.940;4.024;2022-07-06T13:56:26;4.80;;;1.60;;
52274;SDS011;38228;50.940;4.024;2022-07-06T13:58:53;6.38;;;1.58;;
52274;SDS011;38228;50.940;4.024;2022-07-06T14:01:19;5.53;;;1.58;;
52274;SDS011;38228;50.940;4.024;2022-07-06T14:03:45;7.53;;;1.60;;
52274;SDS011;38228;50.940;4.024;2022-07-06T14:06:11;4.60;;;1.73;;
52274;SDS011;38228;50.940;4.024;2022-07-06T14:08:38;5.35;;;1.52;;
52274;SDS011;38228;50.940;4.024;2022-07-06T14:11:05;5.97;;;1.60;;
52274;SDS011;38228;50.940;4.024;2022-07-06T14:13:32;5.05;;;1.83;;
52274;SDS011;38228;50.940;4.024;2022-07-06T14:15:58;6.40;;;1.75;;
52274;SDS011;38228;50.940;4.024;2022-07-06T14:18:25;4.95;;;1.70;;
52274;SDS011;38228;50.940;4.024;2022-07-06T14:20:51;5.82;;;2.05;;
52274;SDS011;38228;50.940;4.024;2022-07-06T14:23:17;5.05;;;1.73;;
52274;SDS011;38228;50.940;4.024;2022-07-06T14:25:43;5.00;;;1.88;;
52274;SDS011;38228;50.940;4.024;2022-07-06T14:28:10;7.93;;;1.70;;
52274;SDS011;38228;50.940;4.024;2022-07-06T14:30:38;11.50;;;2.10;;
52274;SDS011;38228;50.940;4.024;2022-07-06T14:33:06;5.43;;;1.92;;
52274;SDS011;38228;50.940;4.024;2022-07-06T14:35:36;4.57;;;1.55;;
52274;SDS011;38228;50.940;4.024;2022-07-06T14:38:13;7.25;;;1.63;;
52274;SDS011;38228;50.940;4.024;2022-07-06T14:40:43;4.68;;;1.60;;
52274;SDS011;38228;50.940;4.024;2022-07-06T14:43:09;4.60;;;1.85;;
52274;SDS011;38228;50.940;4.024;2022-07-06T14:45:35;6.47;;;1.77;;
52274;SDS011;38228;50.940;4.024;2022-07-06T14:48:02;5.10;;;2.00;;
52274;SDS011;38228;50.940;4.024;2022-07-06T14:50:30;7.57;;;2.22;;
52274;SDS011;38228;50.940;4.024;2022-07-06T14:52:57;4.80;;;2.50;;
52274;SDS011;38228;50.940;4.024;2022-07-06T14:55:23;7.07;;;2.10;;
52274;SDS011;38228;50.940;4.024;2022-07-06T14:57:49;8.20;;;3.20;;
52274;SDS011;38228;50.940;4.024;2022-07-06T15:00:15;10.65;;;3.35;;
52274;SDS011;38228;50.940;4.024;2022-07-06T15:02:43;4.68;;;3.42;;
52274;SDS011;38228;50.940;4.024;2022-07-06T15:05:10;7.05;;;3.42;;
52274;SDS011;38228;50.940;4.024;2022-07-06T15:07:36;8.02;;;3.80;;
52274;SDS011;38228;50.940;4.024;2022-07-06T15:10:03;11.88;;;3.53;;
52274;SDS011;38228;50.940;4.024;2022-07-06T15:12:30;8.77;;;3.70;;
52274;SDS011;38228;50.940;4.024;2022-07-06T15:14:55;7.68;;;3.30;;
52274;SDS011;38228;50.940;4.024;2022-07-06T15:17:21;6.25;;;3.20;;
52274;SDS011;38228;50.940;4.024;2022-07-06T15:19:47;8.30;;;3.85;;
52274;SDS011;38228;50.940;4.024;2022-07-06T15:22:12;7.32;;;3.45;;
52274;SDS011;38228;50.940;4.024;2022-07-06T15:24:38;7.47;;;3.88;;
52274;SDS011;38228;50.940;4.024;2022-07-06T15:27:04;9.60;;;4.00;;
52274;SDS011;38228;50.940;4.024;2022-07-06T15:29:31;9.15;;;4.00;;
52274;SDS011;38228;50.940;4.024;2022-07-06T15:31:57;9.43;;;3.95;;
52274;SDS011;38228;50.940;4.024;2022-07-06T15:34:23;8.55;;;3.50;;